createdAt,value
2018-03-14T00:04:49.167Z,2.92
2018-03-14T00:10:39.870Z,3.32
2018-03-14T00:16:30.447Z,3.29
2018-03-14T00:22:21.070Z,3.56
2018-03-14T00:28:11.738Z,3.39
2018-03-14T00:34:02.354Z,3.56
2018-03-14T00:39:52.990Z,3.94
2018-03-14T00:45:43.686Z,4.26
2018-03-14T00:51:34.278Z,4.02
2018-03-14T00:57:24.959Z,4.22
2018-03-14T01:03:15.557Z,3.61
2018-03-14T01:09:06.213Z,3.7
2018-03-14T01:14:56.872Z,4.49
2018-03-14T01:20:47.462Z,5.86
2018-03-14T01:26:38.110Z,4.89
2018-03-14T01:32:28.729Z,5.05
2018-03-14T01:38:19.411Z,5.27
2018-03-14T01:44:10.069Z,4.85
2018-03-14T01:50:00.659Z,5.11
2018-03-14T01:55:51.348Z,4.69
2018-03-14T02:01:42.027Z,4.36
2018-03-14T02:07:32.634Z,4.62
2018-03-14T02:13:23.262Z,4.24
2018-03-14T02:19:13.896Z,4.3
2018-03-14T02:25:04.634Z,5.01
2018-03-14T02:30:55.206Z,4.8
2018-03-14T02:36:45.831Z,5.21
2018-03-14T02:42:36.443Z,4.2
2018-03-14T02:48:27.124Z,4.04
2018-03-14T02:54:17.795Z,4.51
2018-03-14T03:00:08.370Z,4.5
2018-03-14T03:05:59.035Z,4.22
2018-03-14T03:11:49.679Z,3.91
2018-03-14T03:17:40.324Z,3.41
2018-03-14T03:23:30.915Z,3.68
2018-03-14T03:29:21.552Z,4.83
2018-03-14T03:35:12.268Z,3.99
2018-03-14T03:41:02.823Z,4.75
2018-03-14T03:46:53.461Z,4.29
2018-03-14T03:52:44.175Z,4.14
2018-03-14T03:58:34.742Z,4.32
2018-03-14T04:04:25.347Z,4.17
2018-03-14T04:10:16.008Z,4.88
2018-03-14T04:16:06.665Z,4.37
2018-03-14T04:21:57.273Z,3.42
2018-03-14T04:27:47.902Z,3.21
2018-03-14T04:33:38.539Z,3.14
2018-03-14T04:39:29.148Z,3.73
2018-03-14T04:45:19.722Z,4.04
2018-03-14T04:51:10.380Z,3.24
2018-03-14T04:57:01.007Z,3.32
2018-03-14T05:02:51.638Z,3.71
2018-03-14T05:08:42.306Z,3.3
2018-03-14T05:14:32.876Z,3.55
2018-03-14T05:20:23.527Z,3.73
2018-03-14T05:26:14.119Z,2.97
2018-03-14T05:32:04.742Z,3.15
2018-03-14T05:37:55.385Z,3.37
2018-03-14T05:43:45.972Z,2.76
2018-03-14T05:49:36.652Z,3.17
2018-03-14T05:55:27.226Z,3.51
2018-03-14T06:01:17.893Z,5.3
2018-03-14T06:07:08.488Z,4.54
2018-03-14T06:12:59.165Z,3.55
2018-03-14T06:18:49.770Z,3.47
2018-03-14T06:24:40.372Z,2.58
2018-03-14T06:30:31.029Z,3.75
2018-03-14T06:36:21.654Z,3.8
2018-03-14T06:42:12.320Z,2.91
2018-03-14T06:48:02.941Z,3.72
2018-03-14T06:53:53.578Z,6.05
2018-03-14T06:59:44.246Z,7.94
2018-03-14T07:05:34.854Z,6.4
2018-03-14T07:11:25.536Z,6.09
2018-03-14T07:17:16.181Z,6.43
2018-03-14T07:23:06.826Z,6.42
2018-03-14T07:28:57.514Z,7.63
2018-03-14T07:34:48.130Z,8.73
2018-03-14T07:40:38.788Z,10.01
2018-03-14T07:46:29.466Z,13.77
2018-03-14T07:52:20.101Z,12.44
2018-03-14T07:58:10.830Z,11.66
2018-03-14T08:04:01.507Z,10.26
2018-03-14T08:09:52.169Z,8.49
2018-03-14T08:15:42.892Z,7.78
2018-03-14T08:21:33.587Z,7.42
2018-03-14T08:27:24.320Z,8.26
2018-03-14T08:33:14.983Z,8.81
2018-03-14T08:39:05.679Z,9.87
2018-03-14T08:44:56.381Z,8.35
2018-03-14T08:50:47.082Z,8.63
2018-03-14T08:56:37.799Z,7.4
2018-03-14T09:02:28.550Z,6.57
2018-03-14T09:08:19.261Z,6.97
2018-03-14T09:14:09.963Z,6.67
2018-03-14T09:20:00.741Z,4.14
2018-03-14T09:25:51.465Z,6.37
2018-03-14T09:31:42.226Z,6.94
2018-03-14T09:37:32.928Z,8.77
2018-03-14T09:43:23.694Z,7.17
2018-03-14T09:49:14.417Z,8.14
2018-03-14T09:55:05.275Z,7.26
2018-03-14T10:00:55.924Z,7.12
2018-03-14T10:06:46.660Z,7.17
2018-03-14T10:12:37.395Z,5.75
2018-03-14T10:18:28.156Z,5.86
2018-03-14T10:24:18.985Z,4.89
2018-03-14T10:30:09.682Z,4.03
2018-03-14T10:36:00.418Z,3.78
2018-03-14T10:41:51.211Z,4.01
2018-03-14T10:47:41.958Z,3.19
2018-03-14T10:53:32.652Z,3.2
2018-03-14T10:59:23.377Z,2.56
2018-03-14T11:05:14.148Z,2.85
2018-03-14T11:11:04.882Z,2.86
2018-03-14T11:16:55.602Z,3.37
2018-03-14T11:22:46.373Z,2.43
2018-03-14T11:28:37.111Z,2.64
2018-03-14T11:34:27.877Z,2.18
2018-03-14T11:40:18.591Z,2.64
2018-03-14T11:46:09.373Z,2.27
2018-03-14T11:52:00.065Z,2.5
2018-03-14T11:57:50.894Z,2.2
2018-03-14T12:03:41.656Z,2.2
2018-03-14T12:09:32.454Z,2.12
2018-03-14T12:15:23.158Z,2.74
2018-03-14T12:21:13.906Z,2.75
2018-03-14T12:27:04.729Z,2.25
2018-03-14T12:32:55.515Z,2.33
2018-03-14T12:38:46.309Z,1.77
2018-03-14T12:44:37.024Z,2.08
2018-03-14T12:50:27.889Z,2.05
2018-03-14T12:56:18.610Z,2.18
2018-03-14T13:02:09.396Z,1.92
2018-03-14T13:08:00.230Z,1.98
2018-03-14T13:13:50.985Z,1.76
2018-03-14T13:19:41.744Z,2.1
2018-03-14T13:25:32.605Z,2.42
2018-03-14T13:31:23.301Z,2.32
2018-03-14T13:37:14.115Z,2.17
2018-03-14T13:43:04.883Z,2.23
2018-03-14T13:48:55.688Z,2.51
2018-03-14T13:54:46.371Z,2.45
2018-03-14T14:00:37.165Z,1.98
2018-03-14T14:06:27.907Z,2.38
2018-03-14T14:12:18.718Z,1.89
2018-03-14T14:18:09.462Z,1.8
2018-03-14T14:24:00.223Z,2.01
2018-03-14T14:29:50.976Z,2.22
2018-03-14T14:35:41.720Z,2.24
2018-03-14T14:41:32.537Z,1.64
2018-03-14T14:47:23.282Z,1.64
2018-03-14T14:53:14.061Z,2.23
2018-03-14T14:59:04.835Z,1.7
2018-03-14T15:04:55.599Z,2.02
2018-03-14T15:10:46.325Z,2.33
2018-03-14T15:16:37.070Z,2.05
2018-03-14T15:22:27.804Z,2.12
2018-03-14T15:28:18.545Z,2.44
2018-03-14T15:34:09.310Z,3.06
2018-03-14T15:40:00.038Z,2.08
2018-03-14T15:45:50.752Z,1.94
2018-03-14T15:51:41.480Z,2.9
2018-03-14T15:57:32.242Z,2.45
2018-03-14T16:03:22.911Z,2.85
2018-03-14T16:09:13.676Z,2.4
2018-03-14T16:15:04.433Z,2.2
2018-03-14T16:20:55.059Z,2.49
2018-03-14T16:26:45.824Z,2.32
2018-03-14T16:32:36.529Z,2.05
2018-03-14T16:38:27.211Z,2.11
2018-03-14T16:44:17.898Z,2.09
2018-03-14T16:50:08.754Z,2.01
2018-03-14T16:55:59.299Z,2.5
2018-03-14T17:01:50.007Z,2.31
2018-03-14T17:07:40.697Z,2.47
2018-03-14T17:13:31.410Z,2.46
2018-03-14T17:19:22.072Z,2.5
2018-03-14T17:25:12.771Z,2.37
2018-03-14T17:31:03.462Z,3.38
2018-03-14T17:36:54.155Z,3.11
2018-03-14T17:42:44.804Z,3.13
2018-03-14T17:48:35.503Z,3.78
2018-03-14T17:54:26.156Z,3.53
2018-03-14T18:00:16.837Z,3.29
2018-03-14T18:06:07.551Z,3.79
2018-03-14T18:11:58.209Z,5.51
2018-03-14T18:17:48.867Z,5.55
2018-03-14T18:23:39.552Z,4.19
2018-03-14T18:29:30.250Z,3.88
2018-03-14T18:35:20.944Z,4.5
2018-03-14T18:41:11.555Z,3.61
2018-03-14T18:47:02.227Z,3.52
2018-03-14T18:52:52.918Z,4.3
2018-03-14T18:58:43.584Z,3.94
2018-03-14T19:04:34.242Z,3.15
2018-03-14T19:10:24.902Z,4.78
2018-03-14T19:16:15.541Z,4.95
2018-03-14T19:22:06.197Z,5.7
2018-03-14T19:27:56.878Z,6.15
2018-03-14T19:33:47.544Z,5.65
2018-03-14T19:39:38.221Z,5.88
2018-03-14T19:45:28.908Z,5.56
2018-03-14T19:51:19.469Z,6.6
2018-03-14T19:57:10.118Z,6.11
2018-03-14T20:03:00.784Z,5.02
2018-03-14T20:08:51.550Z,4.16
2018-03-14T20:14:42.091Z,3.79
2018-03-14T20:20:32.738Z,4.26
2018-03-14T20:26:23.373Z,3.93
2018-03-14T20:32:14.040Z,3.66
2018-03-14T20:38:04.661Z,3.3
2018-03-14T20:43:55.289Z,3.87
2018-03-14T20:49:46.004Z,4.01
2018-03-14T20:55:36.600Z,3.62
2018-03-14T21:01:27.243Z,3.67
2018-03-14T21:07:17.949Z,3.97
2018-03-14T21:13:08.520Z,4.19
2018-03-14T21:18:59.167Z,4.58
2018-03-14T21:24:49.822Z,5.39
2018-03-14T21:30:40.484Z,4.61
2018-03-14T21:36:31.112Z,5.72
2018-03-14T21:42:21.792Z,5.69
2018-03-14T21:48:12.486Z,4.99
2018-03-14T21:54:03.094Z,5.4
2018-03-14T21:59:53.717Z,5.03
2018-03-14T22:05:44.925Z,5.55
2018-03-14T22:11:35.069Z,4.85
2018-03-14T22:17:25.690Z,5.12
2018-03-14T22:23:16.292Z,6.09
2018-03-14T22:29:06.925Z,4.72
2018-03-14T22:34:57.573Z,6.14
2018-03-14T22:40:48.243Z,6.14
2018-03-14T22:46:38.817Z,5.65
2018-03-14T22:52:29.487Z,5.4
2018-03-14T22:58:20.070Z,5.46
2018-03-14T23:04:10.708Z,4.87
2018-03-14T23:10:01.378Z,6.36
2018-03-14T23:15:51.968Z,6.15
2018-03-14T23:21:42.609Z,6.31
2018-03-14T23:27:33.269Z,6.79
2018-03-14T23:33:23.900Z,8.24
2018-03-14T23:39:14.516Z,6.57
2018-03-14T23:45:05.139Z,5.94
2018-03-14T23:50:55.790Z,5.83
2018-03-14T23:56:46.429Z,5.15
